Time;durP1;ratioP1;P1;durP2;ratioP2;P2;SDS_P1;SDS_P2;PMS_P1;PMS_P2;Temp;Humidity;BMP_temperature;BMP_pressure;BME280_temperature;BME280_humidity;BME280_pressure;Samples;Min_cycle;Max_cycle;Signal;HPM_P1;HPM_P2
2023/05/05 00:00:19;;;;;;;;;;;;;;;16.89;53.40;99864.34;1087022;54;19943;-79
2023/05/05 00:01:23;;;;;;;;;;;;;;;16.86;53.37;99853.91;1087026;54;19942;-80
2023/05/05 00:02:24;;;;;;;;;;;;;;;16.89;53.23;99853.53;1086995;54;19977;-79
2023/05/05 00:03:28;;;;;;;;;;;;;;;16.86;53.49;99851.22;1086851;54;19951;-82
2023/05/05 00:04:30;;;;;;;;;;;;;;;16.82;54.08;99852.59;1089373;39;20672;-80
2023/05/05 00:05:33;;;;;;;;;;;;;;;16.85;53.38;99857.63;1086886;54;19942;-81
2023/05/05 00:06:35;;;;;;;;;;;;;;;16.87;53.44;99855.59;1086957;54;19969;-81
2023/05/05 00:07:38;;;;;;;;;;;;;;;16.87;53.14;99852.88;1086826;54;19957;-82
2023/05/05 00:08:42;;;;;;;;;;;;;;;16.89;52.79;99853.53;1087691;47;19943;-80
2023/05/05 00:09:46;;;;;;;;;;;;;;;16.88;53.04;99846.47;1086905;54;19943;-80
2023/05/05 00:10:49;;;;;;;;;;;;;;;16.84;53.13;99846.00;1086841;54;19943;-80
2023/05/05 00:11:53;;;;;;;;;;;;;;;16.79;53.56;99844.91;1086833;54;19942;-80
2023/05/05 00:12:54;;;;;;;;;;;;;;;16.81;52.64;99856.34;1086901;54;19973;-81
2023/05/05 00:13:58;;;;;;;;;;;;;;;16.75;52.92;99849.84;1086674;54;19965;-81
2023/05/05 00:14:59;;;;;;;;;;;;;;;16.69;53.62;99848.75;1086797;54;19966;-81
2023/05/05 00:16:03;;;;;;;;;;;;;;;16.73;53.37;99856.44;1087736;39;20502;-82
2023/05/05 00:17:04;;;;;;;;;;;;;;;16.66;53.83;99848.28;1086766;54;19939;-81
2023/05/05 00:18:09;;;;;;;;;;;;;;;16.67;53.18;99845.41;1087409;47;19950;-80
2023/05/05 00:19:10;;;;;;;;;;;;;;;16.67;52.97;99842.69;1087766;47;19949;-81
2023/05/05 00:20:14;;;;;;;;;;;;;;;16.68;52.35;99847.06;1086821;54;19954;-81
2023/05/05 00:21:15;;;;;;;;;;;;;;;16.68;53.01;99840.81;1086868;54;19950;-82
2023/05/05 00:22:20;;;;;;;;;;;;;;;16.67;53.01;99840.00;1086719;54;19942;-81
2023/05/05 00:23:22;;;;;;;;;;;;;;;16.68;52.97;99838.97;1086722;54;19943;-79
2023/05/05 00:24:28;;;;;;;;;;;;;;;16.69;52.72;99842.50;1086782;47;19946;-79
2023/05/05 00:25:30;;;;;;;;;;;;;;;16.68;53.00;99847.06;1086740;54;19963;-80
2023/05/05 00:26:33;;;;;;;;;;;;;;;16.65;52.72;99850.13;1086753;54;19947;-80
2023/05/05 00:27:35;;;;;;;;;;;;;;;16.62;53.39;99838.88;1086778;54;19943;-80
2023/05/05 00:28:38;;;;;;;;;;;;;;;16.63;52.95;99848.66;1086709;54;19943;-82
2023/05/05 00:29:40;;;;;;;;;;;;;;;16.61;53.06;99851.56;1086693;54;19943;-81
2023/05/05 00:30:44;;;;;;;;;;;;;;;16.59;53.21;99842.81;1086950;47;19943;-82
2023/05/05 00:31:45;;;;;;;;;;;;;;;16.59;53.08;99848.22;1086801;54;19946;-80
2023/05/05 00:32:49;;;;;;;;;;;;;;;16.56;52.93;99848.56;1086673;54;19950;-81
2023/05/05 00:33:50;;;;;;;;;;;;;;;16.54;52.75;99850.63;1086717;54;19957;-80
2023/05/05 00:34:55;;;;;;;;;;;;;;;16.51;53.20;99856.41;1086902;54;19954;-80
2023/05/05 00:35:56;;;;;;;;;;;;;;;16.49;53.31;99850.38;1087050;54;20034;-80
2023/05/05 00:37:00;;;;;;;;;;;;;;;16.49;53.05;99853.06;1087038;54;19942;-79
2023/05/05 00:38:02;;;;;;;;;;;;;;;16.52;52.96;99852.69;1090154;39;20561;-81
2023/05/05 00:39:06;;;;;;;;;;;;;;;16.54;53.10;99850.63;1088958;39;20350;-82
2023/05/05 00:40:11;;;;;;;;;;;;;;;16.53;53.19;99849.78;1087713;46;20965;-80
2023/05/05 00:41:15;;;;;;;;;;;;;;;16.52;53.49;99848.13;1087036;54;19957;-80
2023/05/05 00:42:16;;;;;;;;;;;;;;;16.52;53.94;99850.81;1087234;54;19950;-85
2023/05/05 00:43:20;;;;;;;;;;;;;;;16.51;53.94;99857.25;1087788;54;19945;-85
2023/05/05 00:44:33;;;;;;;;;;;;;;;16.50;53.99;99854.75;1087932;54;19950;-86
2023/05/05 00:45:41;;;;;;;;;;;;;;;16.47;54.06;99850.56;1088767;46;19947;-85
2023/05/05 00:46:42;;;;;;;;;;;;;;;16.46;54.28;99853.44;1087148;54;19942;-81
2023/05/05 00:47:48;;;;;;;;;;;;;;;16.46;54.02;99850.72;1087062;54;19943;-79
2023/05/05 00:48:49;;;;;;;;;;;;;;;16.47;53.75;99849.72;1086907;54;19949;-80
2023/05/05 00:49:53;;;;;;;;;;;;;;;16.48;53.75;99851.38;1087116;54;19939;-79
2023/05/05 00:50:57;;;;;;;;;;;;;;;16.40;53.90;99848.78;1087392;46;19951;-79
2023/05/05 00:51:58;;;;;;;;;;;;;;;16.37;54.58;99856.22;1087042;54;19951;-82
2023/05/05 00:53:03;;;;;;;;;;;;;;;16.40;54.25;99855.00;1087020;54;19942;-80
2023/05/05 00:54:05;;;;;;;;;;;;;;;16.39;54.07;99847.94;1087586;54;20291;-84
2023/05/05 00:55:09;;;;;;;;;;;;;;;16.38;54.59;99846.28;1087664;54;19943;-87
2023/05/05 00:56:16;;;;;;;;;;;;;;;16.41;53.90;99845.06;1087837;54;20730;-84
2023/05/05 00:57:18;;;;;;;;;;;;;;;16.43;53.82;99853.81;1087765;46;19939;-85
2023/05/05 00:58:22;;;;;;;;;;;;;;;16.37;54.30;99850.00;1087775;54;19938;-86
2023/05/05 00:59:23;;;;;;;;;;;;;;;16.40;53.69;99848.78;1087893;54;19991;-85
2023/05/05 01:00:27;;;;;;;;;;;;;;;16.39;53.85;99847.94;1087916;54;20002;-86
2023/05/05 01:01:29;;;;;;;;;;;;;;;16.39;53.58;99850.63;1087886;54;19966;-86
2023/05/05 01:02:32;;;;;;;;;;;;;;;16.41;53.83;99845.06;1087811;54;19950;-85
2023/05/05 01:03:35;;;;;;;;;;;;;;;16.38;53.95;99847.13;1087817;54;19943;-87
2023/05/05 01:04:39;;;;;;;;;;;;;;;16.38;53.64;99844.41;1087723;54;19990;-87
2023/05/05 01:05:46;;;;;;;;;;;;;;;16.36;53.92;99843.75;1087743;54;19953;-86
2023/05/05 01:06:53;;;;;;;;;;;;;;;16.33;53.78;99846.84;1087793;54;20019;-86
2023/05/05 01:08:08;;;;;;;;;;;;;;;16.33;53.62;99854.94;1087719;54;19939;-86
2023/05/05 01:09:16;;;;;;;;;;;;;;;16.30;53.64;99847.22;1087644;54;19969;-84
2023/05/05 01:10:21;;;;;;;;;;;;;;;16.28;53.86;99851.13;1087046;54;19965;-84
2023/05/05 01:11:33;;;;;;;;;;;;;;;16.21;54.26;99849.16;1087645;46;19943;-82
2023/05/05 01:12:37;;;;;;;;;;;;;;;16.20;53.94;99843.97;1087176;54;19943;-83
2023/05/05 01:13:46;;;;;;;;;;;;;;;16.20;54.01;99850.19;1088055;39;20602;-84
2023/05/05 01:14:51;;;;;;;;;;;;;;;16.21;54.14;99848.34;1087123;54;19949;-86
2023/05/05 01:15:59;;;;;;;;;;;;;;;16.23;54.04;99840.91;1087138;54;19943;-83
2023/05/05 01:17:03;;;;;;;;;;;;;;;16.25;53.80;99846.94;1087177;54;20838;-85
2023/05/05 01:18:11;;;;;;;;;;;;;;;16.23;53.78;99843.59;1090080;39;20162;-86
2023/05/05 01:19:25;;;;;;;;;;;;;;;16.22;53.85;99839.22;1087012;54;19942;-84
2023/05/05 01:20:32;;;;;;;;;;;;;;;16.25;53.95;99846.94;1087127;54;19965;-84
2023/05/05 01:21:37;;;;;;;;;;;;;;;16.25;54.04;99846.09;1087134;54;19950;-83
2023/05/05 01:22:44;;;;;;;;;;;;;;;16.25;53.77;99851.50;1087141;54;19996;-84
2023/05/05 01:24:08;;;;;;;;;;;;;;;16.25;53.99;99846.09;1087032;54;19942;-84
2023/05/05 01:25:24;;;;;;;;;;;;;;;16.25;53.69;99841.53;1087141;54;19942;-82
2023/05/05 01:26:42;;;;;;;;;;;;;;;16.22;54.02;99841.94;1086878;54;19946;-80
2023/05/05 01:27:48;;;;;;;;;;;;;;;16.16;54.73;99842.66;1087085;54;19954;-82
2023/05/05 01:29:08;;;;;;;;;;;;;;;16.15;54.26;99843.69;1086948;54;19942;-79
2023/05/05 01:30:16;;;;;;;;;;;;;;;16.17;54.08;99849.72;1087437;39;20640;-80
2023/05/05 01:31:25;;;;;;;;;;;;;;;16.15;54.21;99844.53;1087005;54;20034;-79
2023/05/05 01:32:30;;;;;;;;;;;;;;;16.18;54.26;99846.84;1086925;54;19999;-78
2023/05/05 01:33:36;;;;;;;;;;;;;;;16.17;54.23;99844.34;1087369;46;19949;-79
2023/05/05 01:34:40;;;;;;;;;;;;;;;16.14;54.11;99836.63;1087060;54;19947;-79
2023/05/05 01:35:46;;;;;;;;;;;;;;;16.09;54.52;99841.72;1086967;54;19942;-80
2023/05/05 01:36:51;;;;;;;;;;;;;;;16.07;54.64;99839.22;1087051;54;19942;-81
2023/05/05 01:38:00;;;;;;;;;;;;;;;16.03;54.36;99836.06;1087032;47;19943;-80
2023/05/05 01:39:02;;;;;;;;;;;;;;;15.97;54.99;99833.28;1087042;54;19942;-79
2023/05/05 01:40:09;;;;;;;;;;;;;;;15.87;55.59;99833.56;1086982;54;20788;-81
2023/05/05 01:41:12;;;;;;;;;;;;;;;15.71;55.78;99846.13;1087066;54;19945;-79
2023/05/05 01:42:17;;;;;;;;;;;;;;;15.56;56.46;99829.13;1087076;54;19942;-79
2023/05/05 01:43:20;;;;;;;;;;;;;;;15.59;56.02;99834.13;1087004;54;19943;-79
2023/05/05 01:44:24;;;;;;;;;;;;;;;15.64;55.70;99836.25;1086931;54;19943;-79
2023/05/05 01:45:27;;;;;;;;;;;;;;;15.54;56.90;99831.97;1087095;46;19945;-78
2023/05/05 01:46:31;;;;;;;;;;;;;;;15.46;57.15;99823.97;1086729;54;19950;-79
2023/05/05 01:47:38;;;;;;;;;;;;;;;15.42;57.02;99831.56;1087242;54;19943;-80
2023/05/05 01:48:43;;;;;;;;;;;;;;;15.35;57.42;99819.88;1086828;54;20018;-78
2023/05/05 01:49:46;;;;;;;;;;;;;;;15.34;57.06;99818.19;1086901;54;19966;-79
2023/05/05 01:50:53;;;;;;;;;;;;;;;15.39;56.90;99833.78;1086878;54;19990;-79
2023/05/05 01:51:55;;;;;;;;;;;;;;;15.43;56.78;99833.25;1087018;54;19957;-78
2023/05/05 01:52:59;;;;;;;;;;;;;;;15.49;56.70;99825.47;1086970;54;19942;-79
2023/05/05 01:54:02;;;;;;;;;;;;;;;15.46;56.88;99825.84;1086899;54;19939;-77
2023/05/05 01:55:07;;;;;;;;;;;;;;;15.43;56.97;99830.56;1086967;54;19981;-80
2023/05/05 01:56:12;;;;;;;;;;;;;;;15.51;56.21;99831.50;1088010;46;19965;-78
2023/05/05 01:57:16;;;;;;;;;;;;;;;15.54;56.37;99828.44;1087051;54;19964;-81
2023/05/05 01:58:20;;;;;;;;;;;;;;;15.56;56.34;99831.81;1086999;54;19949;-81
2023/05/05 01:59:25;;;;;;;;;;;;;;;15.54;57.11;99823.06;1087019;54;19943;-79
2023/05/05 02:00:26;;;;;;;;;;;;;;;15.54;56.70;99823.06;1086987;54;19943;-79
2023/05/05 02:01:30;;;;;;;;;;;;;;;15.48;57.45;99829.19;1087138;54;19943;-80
2023/05/05 02:02:33;;;;;;;;;;;;;;;15.44;57.38;99832.25;1087626;46;19939;-78
2023/05/05 02:03:40;;;;;;;;;;;;;;;15.49;56.71;99830.88;1087100;54;20306;-77
2023/05/05 02:04:43;;;;;;;;;;;;;;;15.52;56.54;99830.47;1087083;47;20224;-77
2023/05/05 02:05:48;;;;;;;;;;;;;;;15.54;56.20;99834.66;1087167;54;20002;-79
2023/05/05 02:06:51;;;;;;;;;;;;;;;15.51;56.78;99835.03;1087238;54;19974;-78
2023/05/05 02:07:57;;;;;;;;;;;;;;;15.51;56.66;99844.97;1087722;46;19951;-77
2023/05/05 02:09:00;;;;;;;;;;;;;;;15.52;56.90;99842.13;1087258;47;19962;-78
2023/05/05 02:10:04;;;;;;;;;;;;;;;15.55;56.42;99848.97;1087185;54;20050;-78
2023/05/05 02:11:07;;;;;;;;;;;;;;;15.56;56.53;99845.28;1087124;54;19938;-78
2023/05/05 02:12:11;;;;;;;;;;;;;;;15.56;56.78;99846.09;1087192;54;19986;-78
2023/05/05 02:13:14;;;;;;;;;;;;;;;15.59;56.77;99847.59;1087193;54;19954;-78
2023/05/05 02:14:18;;;;;;;;;;;;;;;15.59;57.00;99847.59;1087449;46;19938;-81
2023/05/05 02:15:20;;;;;;;;;;;;;;;15.55;57.16;99855.19;1087080;54;19950;-80
2023/05/05 02:16:25;;;;;;;;;;;;;;;15.53;57.35;99849.19;1087134;47;20352;-81
2023/05/05 02:17:26;;;;;;;;;;;;;;;15.50;57.52;99849.53;1087139;54;19938;-80
2023/05/05 02:18:34;;;;;;;;;;;;;;;15.47;57.65;99857.97;1087723;54;19942;-84
2023/05/05 02:39:27;;;;;;;;;;;;;;;;;;;;;
2023/05/05 02:44:01;;;;;;;;;;;;;;;15.16;58.33;99879.59;1086643;54;19968;-85
2023/05/05 02:45:07;;;;;;;;;;;;;;;15.14;58.09;99882.47;1086552;54;19946;-82
2023/05/05 02:46:10;;;;;;;;;;;;;;;15.15;58.22;99883.28;1086675;54;19942;-85
2023/05/05 02:47:12;;;;;;;;;;;;;;;15.18;57.78;99874.88;1086815;54;19943;-83
2023/05/05 02:48:19;;;;;;;;;;;;;;;15.16;58.23;99879.59;1087051;54;20015;-83
2023/05/05 02:49:20;;;;;;;;;;;;;;;15.17;58.07;99886.66;1087012;54;19938;-84
2023/05/05 02:50:23;;;;;;;;;;;;;;;15.19;57.84;99879.25;1087428;46;19947;-84
2023/05/05 02:51:25;;;;;;;;;;;;;;;15.23;57.45;99880.53;1087851;46;19943;-77
2023/05/05 02:52:31;;;;;;;;;;;;;;;15.25;57.59;99878.50;1087833;39;20234;-79
2023/05/05 02:53:33;;;;;;;;;;;;;;;15.22;57.99;99882.41;1086881;54;20438;-81
2023/05/05 02:54:37;;;;;;;;;;;;;;;15.20;58.06;99884.44;1086843;54;19939;-82
2023/05/05 02:55:41;;;;;;;;;;;;;;;15.23;57.83;99888.63;1086899;47;19974;-78
2023/05/05 02:56:49;;;;;;;;;;;;;;;15.22;58.13;99887.78;1087158;39;20522;-80
2023/05/05 02:57:53;;;;;;;;;;;;;;;15.23;58.09;99883.22;1087067;39;20167;-79
2023/05/05 02:59:01;;;;;;;;;;;;;;;15.24;57.64;99885.75;1086783;54;19942;-79
2023/05/05 03:00:04;;;;;;;;;;;;;;;15.29;57.84;99885.22;1086958;54;19943;-79
2023/05/05 03:01:13;;;;;;;;;;;;;;;15.31;57.71;99888.56;1086938;54;19949;-80
2023/05/05 03:02:17;;;;;;;;;;;;;;;15.34;57.75;99887.38;1086863;39;20180;-79
2023/05/05 03:03:26;;;;;;;;;;;;;;;15.35;57.76;99887.19;1086866;54;19942;-79
2023/05/05 03:04:30;;;;;;;;;;;;;;;15.36;57.92;99890.72;1086842;54;19942;-79
2023/05/05 03:05:37;;;;;;;;;;;;;;;15.35;57.66;99889.88;1086908;54;19942;-79
2023/05/05 03:06:39;;;;;;;;;;;;;;;15.38;57.32;99894.06;1086841;54;19943;-79
2023/05/05 03:07:48;;;;;;;;;;;;;;;15.39;57.53;99896.59;1086827;54;20020;-79
2023/05/05 03:08:52;;;;;;;;;;;;;;;15.39;57.39;99891.22;1086820;54;19942;-79
2023/05/05 03:09:59;;;;;;;;;;;;;;;15.40;57.27;99887.47;1087048;31;20726;-79
2023/05/05 03:11:05;;;;;;;;;;;;;;;15.35;57.66;99895.28;1086953;54;19943;-78
2023/05/05 03:12:10;;;;;;;;;;;;;;;15.34;57.62;99892.78;1086937;54;19950;-79
2023/05/05 03:13:12;;;;;;;;;;;;;;;15.36;57.62;99896.94;1086892;54;19942;-78
2023/05/05 03:14:19;;;;;;;;;;;;;;;15.34;57.77;99892.78;1087014;46;19953;-79
2023/05/05 03:15:24;;;;;;;;;;;;;;;15.37;57.69;99892.38;1086921;54;19942;-79
2023/05/05 03:16:28;;;;;;;;;;;;;;;15.33;58.25;99896.47;1086885;54;19942;-80
2023/05/05 03:17:29;;;;;;;;;;;;;;;15.28;58.47;99894.31;1086862;54;19939;-79
2023/05/05 03:18:36;;;;;;;;;;;;;;;15.24;58.29;99896.53;1086819;54;19957;-79
2023/05/05 03:19:40;;;;;;;;;;;;;;;15.28;58.46;99889.75;1086876;47;19946;-79
2023/05/05 03:20:44;;;;;;;;;;;;;;;15.31;58.30;99888.56;1088359;46;20046;-79
2023/05/05 03:21:45;;;;;;;;;;;;;;;15.32;58.76;99890.22;1087038;54;19935;-79
2023/05/05 03:22:49;;;;;;;;;;;;;;;15.35;58.48;99887.19;1086919;54;19954;-79
2023/05/05 03:23:50;;;;;;;;;;;;;;;15.27;59.91;99888.06;1086853;54;19942;-79
2023/05/05 03:24:54;;;;;;;;;;;;;;;15.23;59.96;99885.94;1087319;46;19950;-80
2023/05/05 03:25:55;;;;;;;;;;;;;;;15.21;59.64;99887.97;1088147;46;19959;-81
2023/05/05 03:26:59;;;;;;;;;;;;;;;15.20;59.43;99883.63;1087005;54;19943;-80
2023/05/05 03:28:00;;;;;;;;;;;;;;;15.19;59.36;99884.63;1086893;39;20468;-78
2023/05/05 03:29:05;;;;;;;;;;;;;;;15.18;59.66;99891.03;1086988;47;19950;-81
2023/05/05 03:30:07;;;;;;;;;;;;;;;15.18;59.43;99882.94;1086828;54;19943;-80
2023/05/05 03:31:11;;;;;;;;;;;;;;;15.18;59.52;99891.03;1087030;46;20285;-80
2023/05/05 03:32:12;;;;;;;;;;;;;;;15.19;59.24;99887.31;1086822;54;19943;-80
2023/05/05 03:33:17;;;;;;;;;;;;;;;15.21;59.40;99893.38;1086799;54;19942;-81
2023/05/05 03:34:21;;;;;;;;;;;;;;;15.21;59.33;99890.69;1086851;54;19939;-82
2023/05/05 03:35:24;;;;;;;;;;;;;;;15.21;59.25;99888.81;1087696;46;19969;-80
2023/05/05 03:36:28;;;;;;;;;;;;;;;15.24;59.09;99890.28;1086816;54;19939;-80
2023/05/05 03:37:30;;;;;;;;;;;;;;;15.23;59.32;99885.94;1086896;54;19958;-80
2023/05/05 03:38:33;;;;;;;;;;;;;;;15.21;59.51;99886.13;1086748;54;19970;-80
2023/05/05 03:39:35;;;;;;;;;;;;;;;15.22;59.70;99895.03;1086754;54;20840;-80
2023/05/05 03:40:38;;;;;;;;;;;;;;;15.20;59.63;99892.50;1086905;54;19949;-80
2023/05/05 03:41:39;;;;;;;;;;;;;;;15.22;59.67;99889.63;1088144;47;19946;-79
2023/05/05 03:42:43;;;;;;;;;;;;;;;15.18;60.01;99883.78;1086899;54;19951;-78
2023/05/05 03:43:45;;;;;;;;;;;;;;;15.16;59.86;99885.78;1086916;54;19943;-79
2023/05/05 03:44:48;;;;;;;;;;;;;;;15.16;59.81;99888.50;1086715;54;20038;-79
2023/05/05 03:45:50;;;;;;;;;;;;;;;15.18;59.59;99885.63;1086792;54;19950;-79
2023/05/05 03:46:53;;;;;;;;;;;;;;;15.16;59.84;99890.34;1086810;54;19942;-79
2023/05/05 03:47:54;;;;;;;;;;;;;;;15.12;60.57;99890.69;1086849;54;19942;-79
2023/05/05 03:48:58;;;;;;;;;;;;;;;15.11;60.59;99883.63;1086862;54;19949;-80
2023/05/05 03:50:02;;;;;;;;;;;;;;;15.07;60.61;99882.34;1086817;54;19949;-81
2023/05/05 03:51:06;;;;;;;;;;;;;;;15.05;60.70;99878.16;1086819;54;19995;-81
2023/05/05 03:52:07;;;;;;;;;;;;;;;15.01;60.66;99883.06;1086799;54;20279;-80
2023/05/05 03:53:11;;;;;;;;;;;;;;;15.00;60.46;99881.38;1086827;54;19949;-80
2023/05/05 03:54:12;;;;;;;;;;;;;;;14.97;60.73;99879.84;1089849;39;20210;-79
2023/05/05 03:55:16;;;;;;;;;;;;;;;14.96;60.86;99883.59;1086820;54;19943;-78
2023/05/05 03:56:17;;;;;;;;;;;;;;;14.98;60.43;99878.03;1086862;54;19942;-80
2023/05/05 03:57:21;;;;;;;;;;;;;;;14.97;60.42;99873.66;1086801;54;19950;-81
2023/05/05 03:58:22;;;;;;;;;;;;;;;14.98;60.36;99881.53;1086787;54;19949;-79
2023/05/05 03:59:26;;;;;;;;;;;;;;;14.98;60.86;99880.72;1086889;54;19942;-78
2023/05/05 04:00:27;;;;;;;;;;;;;;;14.98;60.54;99881.53;1087418;39;20183;-80
2023/05/05 04:01:31;;;;;;;;;;;;;;;15.02;60.31;99882.00;1086805;54;19950;-80
2023/05/05 04:02:32;;;;;;;;;;;;;;;15.01;60.74;99883.06;1086694;54;19943;-81
2023/05/05 04:03:36;;;;;;;;;;;;;;;15.04;60.54;99881.84;1086708;54;19981;-79
2023/05/05 04:04:37;;;;;;;;;;;;;;;15.04;60.58;99880.00;1086713;54;19973;-79
2023/05/05 04:05:43;;;;;;;;;;;;;;;15.04;60.61;99882.69;1086786;54;19950;-80
2023/05/05 04:06:45;;;;;;;;;;;;;;;15.06;60.36;99879.84;1086833;54;19943;-79
2023/05/05 04:07:48;;;;;;;;;;;;;;;15.07;60.55;99885.03;1086771;54;19943;-81
2023/05/05 04:08:49;;;;;;;;;;;;;;;15.06;61.06;99886.03;1086730;54;19949;-80
2023/05/05 04:09:54;;;;;;;;;;;;;;;15.04;60.60;99881.84;1086826;54;19965;-79
2023/05/05 04:10:56;;;;;;;;;;;;;;;15.03;61.09;99875.63;1087136;54;19942;-80
2023/05/05 04:12:00;;;;;;;;;;;;;;;15.06;60.60;99883.34;1087157;54;19943;-81
2023/05/05 04:13:01;;;;;;;;;;;;;;;15.04;60.82;99877.31;1087139;54;19973;-81
2023/05/05 04:14:05;;;;;;;;;;;;;;;15.04;61.37;99888.06;1087457;39;20234;-80
2023/05/05 04:15:06;;;;;;;;;;;;;;;15.05;60.70;99884.38;1087065;54;19942;-82
2023/05/05 04:16:10;;;;;;;;;;;;;;;15.06;60.92;99885.22;1087118;54;20233;-82
2023/05/05 04:17:11;;;;;;;;;;;;;;;15.04;61.25;99888.06;1087075;54;19939;-83
2023/05/05 04:18:15;;;;;;;;;;;;;;;15.03;61.10;99883.69;1087118;54;19942;-82
2023/05/05 04:19:17;;;;;;;;;;;;;;;15.04;60.98;99885.38;1087200;54;19999;-82
2023/05/05 04:20:21;;;;;;;;;;;;;;;15.06;61.25;99898.69;1087369;46;19946;-80
2023/05/05 04:21:24;;;;;;;;;;;;;;;15.07;61.21;99882.34;1088001;46;19962;-80
2023/05/05 04:22:28;;;;;;;;;;;;;;;15.08;61.36;99888.53;1087158;47;19969;-79
2023/05/05 04:23:30;;;;;;;;;;;;;;;15.05;61.77;99889.75;1087044;54;19942;-80
2023/05/05 04:24:33;;;;;;;;;;;;;;;15.07;61.65;99889.56;1087084;54;19938;-81
2023/05/05 04:25:34;;;;;;;;;;;;;;;15.05;61.88;99891.63;1087161;54;19950;-78
2023/05/05 04:26:38;;;;;;;;;;;;;;;15.02;62.36;99900.84;1087062;54;19951;-81
2023/05/05 04:27:39;;;;;;;;;;;;;;;15.01;62.14;99896.53;1087119;54;19943;-80
2023/05/05 04:28:43;;;;;;;;;;;;;;;15.04;61.93;99893.44;1087072;54;19998;-83
2023/05/05 04:29:45;;;;;;;;;;;;;;;15.08;61.90;99894.78;1088108;46;19950;-80
2023/05/05 04:30:48;;;;;;;;;;;;;;;15.12;61.77;99896.09;1087192;54;19949;-79
2023/05/05 04:31:50;;;;;;;;;;;;;;;15.16;61.49;99893.06;1087118;54;19948;-80
2023/05/05 04:32:53;;;;;;;;;;;;;;;15.19;61.45;99906.16;1087045;54;19943;-80
2023/05/05 04:33:54;;;;;;;;;;;;;;;15.19;61.27;99901.59;1087144;54;19947;-80
2023/05/05 04:34:58;;;;;;;;;;;;;;;15.21;61.28;99904.97;1087344;46;19949;-80
2023/05/05 04:35:59;;;;;;;;;;;;;;;15.18;61.82;99899.94;1087149;54;19943;-80
2023/05/05 04:37:06;;;;;;;;;;;;;;;15.18;61.89;99901.78;1087112;54;19943;-82
2023/05/05 04:38:07;;;;;;;;;;;;;;;15.17;61.81;99902.81;1088476;39;20456;-79
2023/05/05 04:39:10;;;;;;;;;;;;;;;15.18;61.62;99896.41;1087178;54;19949;-80
2023/05/05 04:40:12;;;;;;;;;;;;;;;15.20;61.46;99899.75;1087046;54;19951;-82
2023/05/05 04:41:16;;;;;;;;;;;;;;;15.20;61.49;99897.91;1087201;54;19981;-79
2023/05/05 04:42:17;;;;;;;;;;;;;;;15.22;61.63;99900.41;1087258;54;20406;-80
2023/05/05 04:43:20;;;;;;;;;;;;;;;15.23;61.23;99904.78;1087054;54;19942;-80
2023/05/05 04:44:22;;;;;;;;;;;;;;;15.23;61.37;99902.94;1087205;39;20141;-79
2023/05/05 04:45:25;;;;;;;;;;;;;;;15.22;61.57;99900.41;1087203;46;20345;-81
2023/05/05 04:46:26;;;;;;;;;;;;;;;15.21;61.97;99904.13;1087080;54;19938;-83
2023/05/05 04:47:30;;;;;;;;;;;;;;;15.21;61.65;99913.03;1087183;54;19950;-81
2023/05/05 04:48:33;;;;;;;;;;;;;;;15.22;61.65;99905.78;1087932;46;19995;-83
2023/05/05 04:49:36;;;;;;;;;;;;;;;15.18;61.35;99909.88;1087592;54;19998;-80
2023/05/05 04:50:37;;;;;;;;;;;;;;;15.19;61.64;99908.84;1088283;46;19945;-80
2023/05/05 04:51:42;;;;;;;;;;;;;;;15.20;61.58;99905.16;1088396;46;20290;-85
2023/05/05 04:52:49;;;;;;;;;;;;;;;15.23;61.30;99905.63;1088870;46;19942;-83
2023/05/05 04:53:50;;;;;;;;;;;;;;;15.23;61.31;99915.53;1088782;46;19946;-83
2023/05/05 04:54:54;;;;;;;;;;;;;;;15.18;61.85;99915.25;1087654;54;19943;-83
2023/05/05 04:55:55;;;;;;;;;;;;;;;15.13;61.97;99913.91;1088989;46;19946;-82
2023/05/05 04:56:59;;;;;;;;;;;;;;;15.09;61.84;99923.38;1087606;54;19939;-81
2023/05/05 04:58:00;;;;;;;;;;;;;;;15.13;61.60;99922.00;1087544;54;19950;-83
2023/05/05 04:59:04;;;;;;;;;;;;;;;15.11;61.82;99918.63;1087442;54;19982;-83
2023/05/05 05:00:06;;;;;;;;;;;;;;;15.17;61.23;99921.66;1087518;54;19943;-81
2023/05/05 05:01:10;;;;;;;;;;;;;;;15.23;60.96;99920.94;1087325;54;19946;-81
2023/05/05 05:02:11;;;;;;;;;;;;;;;15.28;61.10;99921.25;1087644;46;19946;-82
2023/05/05 05:03:15;;;;;;;;;;;;;;;15.28;60.85;99916.69;1087298;54;20229;-82
2023/05/05 05:04:17;;;;;;;;;;;;;;;15.31;60.89;99915.47;1087635;46;19939;-83
2023/05/05 05:05:21;;;;;;;;;;;;;;;15.24;60.91;99919.91;1087057;54;19946;-81
2023/05/05 05:06:22;;;;;;;;;;;;;;;15.20;60.75;99913.22;1086915;54;19950;-81
2023/05/05 05:07:26;;;;;;;;;;;;;;;15.21;60.66;99914.91;1087051;54;19942;-82
2023/05/05 05:08:30;;;;;;;;;;;;;;;15.17;61.31;99925.16;1086984;54;19965;-81
2023/05/05 05:09:33;;;;;;;;;;;;;;;15.16;60.97;99925.34;1086969;54;19949;-82
2023/05/05 05:10:35;;;;;;;;;;;;;;;15.18;61.18;99926.03;1087042;54;19943;-80
2023/05/05 05:11:38;;;;;;;;;;;;;;;15.21;60.72;99925.69;1086995;47;19999;-83
2023/05/05 05:12:39;;;;;;;;;;;;;;;15.21;60.91;99921.13;1087088;54;19942;-81
2023/05/05 05:13:43;;;;;;;;;;;;;;;15.23;60.87;99918.25;1087116;47;19943;-81
2023/05/05 05:14:44;;;;;;;;;;;;;;;15.22;61.41;99921.94;1087037;54;19964;-81
2023/05/05 05:15:48;;;;;;;;;;;;;;;15.19;61.56;99920.44;1087000;54;19945;-81
2023/05/05 05:16:51;;;;;;;;;;;;;;;15.15;61.78;99929.91;1087021;54;19965;-82
2023/05/05 05:17:54;;;;;;;;;;;;;;;15.17;61.66;99924.34;1086880;54;19942;-81
2023/05/05 05:18:55;;;;;;;;;;;;;;;15.17;61.82;99927.03;1086935;54;19966;-81
2023/05/05 05:20:03;;;;;;;;;;;;;;;15.17;61.74;99929.72;1087204;46;19946;-79
2023/05/05 05:21:04;;;;;;;;;;;;;;;15.19;61.55;99935.78;1088301;39;20217;-81
2023/05/05 05:22:08;;;;;;;;;;;;;;;15.17;61.90;99927.88;1086908;54;19942;-80
2023/05/05 05:23:09;;;;;;;;;;;;;;;15.22;61.23;99933.56;1086893;54;19942;-80
2023/05/05 05:24:15;;;;;;;;;;;;;;;15.24;61.14;99936.06;1087352;46;19943;-79
2023/05/05 05:25:17;;;;;;;;;;;;;;;15.27;60.78;99933.03;1086962;54;19949;-79
2023/05/05 05:26:20;;;;;;;;;;;;;;;15.29;61.06;99936.41;1086905;54;20410;-79
2023/05/05 05:27:22;;;;;;;;;;;;;;;15.26;61.27;99931.34;1087226;31;20654;-77
2023/05/05 05:28:27;;;;;;;;;;;;;;;15.26;61.08;99940.25;1086790;54;19954;-83
2023/05/05 05:29:29;;;;;;;;;;;;;;;15.23;61.45;99946.03;1086946;54;19950;-82
2023/05/05 05:30:32;;;;;;;;;;;;;;;15.23;61.70;99942.47;1086961;54;19949;-81
2023/05/05 05:31:35;;;;;;;;;;;;;;;15.22;61.43;99941.66;1086928;54;19943;-80
2023/05/05 05:32:39;;;;;;;;;;;;;;;15.26;61.13;99939.44;1086952;54;19942;-82
2023/05/05 05:33:40;;;;;;;;;;;;;;;15.31;61.20;99941.59;1086884;54;19939;-81
2023/05/05 05:34:44;;;;;;;;;;;;;;;15.34;61.08;99938.56;1086751;54;19954;-80
2023/05/05 05:35:45;;;;;;;;;;;;;;;15.37;60.69;99930.94;1087167;54;19943;-84
2023/05/05 05:36:49;;;;;;;;;;;;;;;15.38;60.79;99938.00;1087264;54;19994;-84
2023/05/05 05:37:51;;;;;;;;;;;;;;;15.40;60.94;99932.44;1087166;54;19942;-85
2023/05/05 05:38:58;;;;;;;;;;;;;;;15.44;60.65;99937.28;1086926;54;19943;-84
2023/05/05 05:40:04;;;;;;;;;;;;;;;15.46;61.04;99936.28;1086868;54;19947;-85
2023/05/05 05:41:06;;;;;;;;;;;;;;;15.49;60.97;99941.31;1087170;54;19942;-83
2023/05/05 05:42:09;;;;;;;;;;;;;;;15.51;60.63;99933.88;1087312;54;19989;-85
2023/05/05 05:43:11;;;;;;;;;;;;;;;15.55;60.62;99940.59;1087397;54;19942;-85
2023/05/05 05:44:14;;;;;;;;;;;;;;;15.60;60.55;99941.72;1087342;54;19982;-84
2023/05/05 05:45:16;;;;;;;;;;;;;;;15.56;60.62;99939.56;1087406;54;19943;-84
2023/05/05 05:46:19;;;;;;;;;;;;;;;15.62;60.53;99938.00;1087426;54;20027;-85
2023/05/05 05:47:21;;;;;;;;;;;;;;;15.61;60.74;99945.25;1087082;54;19978;-83
2023/05/05 05:48:27;;;;;;;;;;;;;;;15.69;60.45;99947.03;1087242;54;19939;-84
2023/05/05 05:49:28;;;;;;;;;;;;;;;15.74;60.23;99942.78;1087258;54;19950;-85
2023/05/05 05:50:32;;;;;;;;;;;;;;;15.72;60.44;99939.44;1087305;54;19942;-85
2023/05/05 05:51:35;;;;;;;;;;;;;;;15.74;60.12;99948.19;1088580;39;20183;-85
2023/05/05 05:52:37;;;;;;;;;;;;;;;15.82;59.98;99938.34;1087398;54;19943;-87
2023/05/05 05:53:40;;;;;;;;;;;;;;;15.86;59.58;99934.31;1087289;54;19964;-85
2023/05/05 05:54:42;;;;;;;;;;;;;;;15.87;59.71;99936.81;1087418;54;19942;-83
2023/05/05 05:55:50;;;;;;;;;;;;;;;15.91;59.45;99939.97;1087069;54;19943;-85